Time;durP1;ratioP1;P1;durP2;ratioP2;P2;SDS_P1;SDS_P2;PMS_P1;PMS_P2;Temp;Humidity;BMP_temperature;BMP_pressure;BME280_temperature;BME280_humidity;BME280_pressure;Samples;Min_cycle;Max_cycle;Signal;HPM_P1;HPM_P2
2023/10/29 00:01:54;;;;;;;7.72;4.50;;;11.50;99.90;;;;;;5040584;28;20068;-72
2023/10/29 00:04:21;;;;;;;9.88;5.18;;;11.50;99.90;;;;;;5032137;28;20064;-72
2023/10/29 00:06:48;;;;;;;9.60;5.32;;;11.50;99.90;;;;;;5003884;28;20038;-72
2023/10/29 00:09:14;;;;;;;8.27;4.88;;;11.50;99.90;;;;;;5035314;28;20064;-71
2023/10/29 00:11:41;;;;;;;8.75;5.00;;;11.50;99.90;;;;;;5027038;28;20033;-71
2023/10/29 00:14:06;;;;;;;7.43;5.22;;;11.50;99.90;;;;;;5041575;28;20055;-72
2023/10/29 00:16:32;;;;;;;7.80;5.20;;;11.50;99.90;;;;;;5039625;28;20436;-71
2023/10/29 00:18:58;;;;;;;6.35;4.63;;;11.60;99.90;;;;;;5039115;28;20072;-71
2023/10/29 00:21:30;;;;;;;8.90;4.85;;;11.60;99.90;;;;;;5037672;28;20076;-71
2023/10/29 00:23:56;;;;;;;8.10;4.70;;;11.60;99.90;;;;;;5043674;28;20076;-71
2023/10/29 00:26:24;;;;;;;7.10;4.72;;;11.60;99.90;;;;;;5033980;28;20072;-71
2023/10/29 00:28:51;;;;;;;7.32;4.53;;;11.60;99.90;;;;;;5039280;28;20131;-71
2023/10/29 00:31:18;;;;;;;8.98;5.00;;;11.60;99.90;;;;;;5037312;28;20152;-71
2023/10/29 00:33:43;;;;;;;6.35;4.47;;;11.60;99.90;;;;;;5040944;28;20073;-71
2023/10/29 00:36:10;;;;;;;7.50;4.75;;;11.60;99.90;;;;;;5043236;28;20129;-72
2023/10/29 00:38:36;;;;;;;6.05;4.32;;;11.60;99.90;;;;;;5043306;28;20128;-72
2023/10/29 00:41:02;;;;;;;6.88;3.95;;;11.70;99.90;;;;;;5020968;28;20046;-71
2023/10/29 00:43:27;;;;;;;9.20;4.72;;;11.70;99.90;;;;;;5032871;28;20114;-72
2023/10/29 00:45:54;;;;;;;7.90;4.57;;;11.70;99.90;;;;;;5034903;28;20505;-73
2023/10/29 00:48:22;;;;;;;7.15;4.72;;;11.70;99.90;;;;;;5036929;28;20033;-72
2023/10/29 00:50:49;;;;;;;7.03;4.32;;;11.80;99.90;;;;;;5040171;28;20048;-71
2023/10/29 00:53:16;;;;;;;7.03;4.55;;;11.70;99.90;;;;;;5043994;28;20033;-71
2023/10/29 00:55:42;;;;;;;10.73;4.75;;;11.80;99.90;;;;;;5042428;28;20049;-71
2023/10/29 00:58:08;;;;;;;8.15;4.60;;;11.80;99.90;;;;;;5047687;28;20040;-71
2023/10/29 01:00:34;;;;;;;7.78;4.55;;;11.80;99.90;;;;;;5043741;28;20115;-72
2023/10/29 01:02:59;;;;;;;6.88;4.25;;;11.80;99.90;;;;;;5041626;28;20048;-71
2023/10/29 01:05:25;;;;;;;6.85;4.18;;;11.80;99.90;;;;;;5043224;28;20048;-71
2023/10/29 01:07:51;;;;;;;8.27;4.20;;;11.90;99.90;;;;;;5045029;28;20069;-71
2023/10/29 01:10:17;;;;;;;6.90;4.15;;;11.90;99.90;;;;;;5039640;28;20037;-72
2023/10/29 01:12:45;;;;;;;7.47;4.60;;;11.90;99.90;;;;;;5038881;28;20044;-72
2023/10/29 01:15:14;;;;;;;7.25;3.78;;;11.90;99.90;;;;;;5035205;28;20108;-72
2023/10/29 01:17:41;;;;;;;7.63;4.07;;;11.90;99.90;;;;;;5037651;28;20182;-71
2023/10/29 01:20:07;;;;;;;5.32;3.72;;;12.00;99.90;;;;;;5022087;28;20529;-71
2023/10/29 01:22:36;;;;;;;7.95;3.97;;;12.00;99.90;;;;;;5036349;28;20164;-72
2023/10/29 01:25:07;;;;;;;9.50;4.10;;;12.00;99.90;;;;;;5021889;28;20041;-72
2023/10/29 01:27:35;;;;;;;9.07;3.97;;;12.00;99.90;;;;;;5030815;28;20409;-72
2023/10/29 01:30:01;;;;;;;6.72;3.60;;;12.00;99.90;;;;;;5043560;28;20079;-72
2023/10/29 01:32:26;;;;;;;7.63;3.78;;;12.00;99.90;;;;;;5032487;28;20077;-71
2023/10/29 01:34:52;;;;;;;8.85;3.60;;;12.00;99.90;;;;;;5039209;28;20033;-71
2023/10/29 01:37:18;;;;;;;6.82;3.50;;;12.10;99.90;;;;;;5037486;28;20148;-71
2023/10/29 01:39:44;;;;;;;7.97;3.50;;;12.10;99.90;;;;;;5041110;28;20063;-71
2023/10/29 01:42:10;;;;;;;8.00;3.55;;;12.10;99.90;;;;;;5040078;28;20068;-71
2023/10/29 01:44:36;;;;;;;9.77;3.30;;;12.10;99.90;;;;;;5042227;28;20061;-71
2023/10/29 01:47:03;;;;;;;7.82;3.35;;;12.20;99.90;;;;;;5043791;28;20478;-70
2023/10/29 01:49:28;;;;;;;6.35;3.00;;;12.20;99.90;;;;;;5030894;28;20037;-71
2023/10/29 01:51:57;;;;;;;5.63;2.97;;;12.20;99.90;;;;;;5027674;28;20038;-71
2023/10/29 01:54:23;;;;;;;7.70;2.92;;;12.20;99.90;;;;;;5034065;28;20087;-71
2023/10/29 01:56:49;;;;;;;6.07;2.83;;;12.20;99.90;;;;;;5046549;28;20037;-71
2023/10/29 01:59:15;;;;;;;5.55;2.88;;;12.20;99.90;;;;;;5045409;28;20080;-71
2023/10/29 02:01:45;;;;;;;9.35;2.60;;;12.20;99.90;;;;;;5038239;28;20405;-71
2023/10/29 02:04:11;;;;;;;6.60;2.50;;;12.30;99.90;;;;;;5022612;28;20405;-71
2023/10/29 02:06:39;;;;;;;4.95;2.63;;;12.30;99.90;;;;;;5031968;28;20049;-71
2023/10/29 02:09:12;;;;;;;6.18;2.60;;;12.30;99.90;;;;;;5040972;28;20049;-71
2023/10/29 02:11:39;;;;;;;5.35;2.15;;;12.30;99.90;;;;;;5024302;28;20555;-72
2023/10/29 02:14:05;;;;;;;4.47;2.08;;;12.30;99.90;;;;;;5048538;28;20528;-71
2023/10/29 02:16:31;;;;;;;4.82;2.00;;;12.30;99.90;;;;;;5036455;28;20081;-71
2023/10/29 02:18:57;;;;;;;6.72;2.40;;;12.50;99.90;;;;;;5037867;28;20072;-71
2023/10/29 02:21:24;;;;;;;4.50;1.92;;;12.40;99.90;;;;;;5039833;28;20086;-71
2023/10/29 02:23:50;;;;;;;7.05;2.25;;;12.40;99.90;;;;;;5039701;28;20077;-71
2023/10/29 02:26:16;;;;;;;5.53;2.30;;;12.40;99.90;;;;;;5040139;28;20044;-72
2023/10/29 02:28:42;;;;;;;4.68;2.05;;;12.40;99.90;;;;;;5034026;28;20055;-72
2023/10/29 02:31:26;;;;;;;3.55;1.98;;;12.50;99.90;;;;;;5047860;28;20041;-72
2023/10/29 02:33:51;;;;;;;5.10;2.20;;;12.40;99.90;;;;;;5033462;28;20046;-72
2023/10/29 02:36:17;;;;;;;5.10;2.20;;;12.40;99.90;;;;;;5031267;28;20032;-72
2023/10/29 02:38:43;;;;;;;6.03;1.95;;;12.30;99.90;;;;;;5039417;28;20048;-72
2023/10/29 02:41:09;;;;;;;4.80;1.90;;;12.30;99.90;;;;;;5035399;28;20482;-72
2023/10/29 02:43:38;;;;;;;7.15;2.40;;;12.30;99.90;;;;;;5034902;28;20402;-71
2023/10/29 02:46:04;;;;;;;7.38;2.00;;;12.30;99.90;;;;;;5042656;28;20033;-72
2023/10/29 02:48:29;;;;;;;7.10;2.13;;;12.30;99.90;;;;;;5041030;28;20559;-72
2023/10/29 02:50:55;;;;;;;5.53;2.53;;;12.30;99.90;;;;;;5034845;28;20033;-72
2023/10/29 02:53:22;;;;;;;4.68;1.95;;;12.30;99.90;;;;;;5034976;28;20040;-72
2023/10/29 02:55:48;;;;;;;7.07;2.05;;;12.30;99.90;;;;;;5045182;28;20036;-72
2023/10/29 02:58:14;;;;;;;5.47;2.05;;;12.30;99.90;;;;;;5034002;28;20041;-72
2023/10/29 03:00:40;;;;;;;5.38;2.00;;;12.30;99.90;;;;;;5044926;28;20041;-72
2023/10/29 03:03:06;;;;;;;3.88;2.05;;;12.30;99.90;;;;;;5034378;28;20042;-72
2023/10/29 03:05:34;;;;;;;6.70;1.98;;;12.40;99.90;;;;;;5042318;28;20052;-72
2023/10/29 03:08:00;;;;;;;8.00;2.10;;;12.40;99.90;;;;;;5044135;28;20075;-72
2023/10/29 03:10:26;;;;;;;4.97;2.47;;;12.40;99.90;;;;;;5025117;28;20040;-72
2023/10/29 03:12:54;;;;;;;8.10;2.00;;;12.40;99.90;;;;;;5026776;28;20041;-72
2023/10/29 03:15:19;;;;;;;7.13;1.80;;;12.50;99.90;;;;;;5045770;28;20037;-73
2023/10/29 03:17:45;;;;;;;2.40;1.38;;;12.50;99.90;;;;;;5046262;28;20033;-73
2023/10/29 03:20:16;;;;;;;3.33;1.40;;;12.60;99.90;;;;;;5037207;28;20100;-72
2023/10/29 03:22:42;;;;;;;4.95;1.75;;;12.60;99.90;;;;;;5042421;28;20072;-72
2023/10/29 03:25:08;;;;;;;3.90;1.50;;;12.60;99.90;;;;;;5041301;28;20037;-72
2023/10/29 03:27:34;;;;;;;3.85;1.40;;;12.60;99.90;;;;;;5036996;28;20113;-72
2023/10/29 03:30:00;;;;;;;3.30;1.52;;;12.70;99.90;;;;;;5044877;28;20105;-72
2023/10/29 03:32:25;;;;;;;2.97;1.50;;;12.70;99.90;;;;;;5042411;28;20484;-72
2023/10/29 03:34:51;;;;;;;4.60;1.75;;;12.70;99.90;;;;;;5026624;28;20041;-72
2023/10/29 03:37:18;;;;;;;4.65;1.48;;;12.70;99.90;;;;;;5039445;28;20045;-71
2023/10/29 03:39:43;;;;;;;3.78;1.35;;;12.70;99.90;;;;;;5038316;28;20511;-72
2023/10/29 03:42:10;;;;;;;3.83;1.40;;;12.70;99.90;;;;;;5043244;28;20124;-72
2023/10/29 03:44:36;;;;;;;3.55;1.50;;;12.70;99.90;;;;;;5023386;28;20136;-72
2023/10/29 03:47:02;;;;;;;3.25;1.50;;;12.70;99.90;;;;;;5040978;28;20100;-72
2023/10/29 03:49:28;;;;;;;5.40;1.60;;;12.70;99.90;;;;;;5040107;28;20041;-72
2023/10/29 03:51:55;;;;;;;3.55;1.50;;;12.70;99.90;;;;;;5035730;28;20044;-73
2023/10/29 03:54:21;;;;;;;2.92;1.30;;;12.80;99.90;;;;;;5018277;28;20040;-71
2023/10/29 03:56:47;;;;;;;4.15;1.80;;;12.70;99.90;;;;;;5009270;28;20120;-72
2023/10/29 03:59:13;;;;;;;5.43;1.55;;;12.80;99.90;;;;;;5032355;28;20176;-71
2023/10/29 04:01:38;;;;;;;2.72;1.45;;;12.70;99.90;;;;;;5041494;28;20068;-72
2023/10/29 04:04:04;;;;;;;4.05;1.50;;;12.80;99.90;;;;;;5035375;28;20453;-72
2023/10/29 04:06:32;;;;;;;4.70;1.70;;;12.80;99.90;;;;;;5042055;28;20107;-73
2023/10/29 04:08:59;;;;;;;4.22;1.48;;;12.80;99.90;;;;;;5024028;28;20120;-72
2023/10/29 04:11:24;;;;;;;5.15;1.70;;;12.80;99.90;;;;;;5026982;28;20116;-72
2023/10/29 04:13:50;;;;;;;5.10;1.52;;;12.80;99.90;;;;;;5031065;28;20042;-72
2023/10/29 04:16:17;;;;;;;6.18;1.63;;;12.80;99.90;;;;;;5063262;28;20041;-71
2023/10/29 04:18:42;;;;;;;2.70;1.25;;;12.80;99.90;;;;;;5035794;28;20034;-72
2023/10/29 04:21:08;;;;;;;4.75;1.70;;;12.80;99.90;;;;;;5034173;28;20393;-71
2023/10/29 04:23:36;;;;;;;3.90;1.33;;;12.80;99.90;;;;;;5038689;28;20049;-72
2023/10/29 04:26:03;;;;;;;3.03;1.30;;;12.80;99.90;;;;;;5041803;28;20096;-73
2023/10/29 04:28:30;;;;;;;1.83;1.20;;;12.80;99.90;;;;;;5024335;28;20103;-72
2023/10/29 04:30:56;;;;;;;4.07;1.27;;;12.90;99.90;;;;;;5026961;28;20493;-72
2023/10/29 04:33:23;;;;;;;4.25;1.25;;;12.90;99.90;;;;;;5023574;28;20033;-73
2023/10/29 04:35:49;;;;;;;3.15;1.13;;;12.90;99.90;;;;;;5042551;28;20107;-72
2023/10/29 04:38:17;;;;;;;4.32;1.20;;;12.90;99.90;;;;;;5044296;28;20501;-72
2023/10/29 04:40:44;;;;;;;3.65;1.10;;;13.00;99.90;;;;;;5044001;28;20076;-72
2023/10/29 04:43:10;;;;;;;4.43;1.40;;;12.90;99.90;;;;;;5030754;28;20049;-72
2023/10/29 04:45:35;;;;;;;2.55;1.20;;;12.90;99.90;;;;;;5033493;28;20406;-72
2023/10/29 04:48:01;;;;;;;4.90;1.20;;;12.90;99.90;;;;;;5033313;28;20057;-72
2023/10/29 04:50:30;;;;;;;6.18;1.45;;;12.90;99.90;;;;;;5052859;28;20446;-72
2023/10/29 04:52:56;;;;;;;3.83;1.40;;;12.90;99.90;;;;;;5020582;28;20034;-72
2023/10/29 04:55:22;;;;;;;3.55;1.20;;;12.90;99.90;;;;;;5045076;28;20044;-72
2023/10/29 04:57:49;;;;;;;5.35;1.40;;;12.90;99.90;;;;;;5036673;28;20037;-73
2023/10/29 05:00:15;;;;;;;3.65;1.10;;;12.90;99.90;;;;;;5042228;28;20078;-71
2023/10/29 05:02:42;;;;;;;1.95;1.02;;;13.00;99.90;;;;;;5040875;28;20387;-72
2023/10/29 05:05:10;;;;;;;1.88;1.20;;;13.00;99.90;;;;;;5044069;28;20037;-73
2023/10/29 05:07:36;;;;;;;4.00;1.15;;;13.00;99.90;;;;;;5040838;28;20045;-72
2023/10/29 05:10:02;;;;;;;2.50;1.17;;;13.00;99.90;;;;;;5049146;28;20422;-72
2023/10/29 05:12:28;;;;;;;3.28;1.05;;;13.10;99.90;;;;;;5046235;28;20116;-72
2023/10/29 05:14:54;;;;;;;2.78;0.90;;;13.00;99.90;;;;;;5049547;28;20073;-72
2023/10/29 05:17:20;;;;;;;5.07;1.30;;;13.00;99.90;;;;;;5023784;28;20037;-72
2023/10/29 05:19:45;;;;;;;2.40;0.82;;;13.00;99.90;;;;;;5038930;28;20099;-73
2023/10/29 05:22:11;;;;;;;5.28;1.60;;;13.00;99.90;;;;;;5044020;28;20136;-72
2023/10/29 05:24:37;;;;;;;2.53;1.23;;;13.20;99.90;;;;;;5043773;28;20174;-73
2023/10/29 05:27:03;;;;;;;2.38;0.80;;;13.00;99.90;;;;;;5043175;28;20041;-72
2023/10/29 05:29:29;;;;;;;3.38;0.98;;;13.00;99.90;;;;;;5043792;28;20055;-73
2023/10/29 05:31:54;;;;;;;3.08;0.82;;;13.00;99.90;;;;;;5041617;28;20494;-72
2023/10/29 05:34:21;;;;;;;2.38;1.20;;;13.00;99.90;;;;;;5039251;28;20045;-72
2023/10/29 05:36:49;;;;;;;2.55;0.80;;;13.00;99.90;;;;;;5016502;28;20033;-72
2023/10/29 05:39:18;;;;;;;6.18;1.17;;;13.00;99.90;;;;;;5024766;28;20048;-72
2023/10/29 05:41:44;;;;;;;3.38;1.20;;;13.00;99.90;;;;;;5038795;28;20474;-73
2023/10/29 05:44:10;;;;;;;5.03;1.42;;;13.00;99.90;;;;;;5042227;28;20243;-72
2023/10/29 05:46:35;;;;;;;4.22;1.10;;;13.00;99.90;;;;;;5043438;28;20455;-72
2023/10/29 05:49:01;;;;;;;3.60;1.08;;;13.00;99.90;;;;;;5039976;28;20525;-72
2023/10/29 05:51:27;;;;;;;2.75;1.10;;;13.00;99.90;;;;;;5047156;28;20047;-71
2023/10/29 05:53:52;;;;;;;2.97;1.10;;;13.00;99.90;;;;;;5031411;28;20048;-72
2023/10/29 05:56:18;;;;;;;3.00;1.15;;;13.00;99.90;;;;;;5047912;28;20416;-73
2023/10/29 05:58:44;;;;;;;3.40;0.90;;;13.00;99.90;;;;;;5039610;28;20044;-73
2023/10/29 06:01:12;;;;;;;6.03;1.40;;;13.00;99.90;;;;;;5042499;28;20040;-73
2023/10/29 06:03:39;;;;;;;3.28;1.20;;;13.00;99.90;;;;;;5024643;28;20413;-72
2023/10/29 06:06:04;;;;;;;3.42;1.13;;;13.00;99.90;;;;;;5034599;28;20037;-73
2023/10/29 06:08:30;;;;;;;6.20;1.10;;;13.10;99.90;;;;;;5035413;28;20052;-72
2023/10/29 06:10:56;;;;;;;3.08;0.80;;;13.10;99.90;;;;;;5042508;28;20397;-72
2023/10/29 06:13:22;;;;;;;3.60;1.75;;;13.10;99.90;;;;;;5024659;28;20068;-73
2023/10/29 06:15:48;;;;;;;4.93;1.25;;;13.10;99.90;;;;;;5047646;28;20065;-73
2023/10/29 06:18:16;;;;;;;6.93;1.00;;;13.00;99.90;;;;;;5039264;28;20041;-72
2023/10/29 06:20:43;;;;;;;4.53;1.10;;;13.00;99.90;;;;;;5024493;28;20041;-73
2023/10/29 06:23:13;;;;;;;7.68;1.30;;;13.00;99.90;;;;;;5018300;28;20450;-73
2023/10/29 06:25:39;;;;;;;4.65;1.05;;;13.00;99.90;;;;;;5036008;28;20041;-73
2023/10/29 06:28:05;;;;;;;6.35;1.30;;;13.00;99.90;;;;;;5045892;28;20567;-73
2023/10/29 06:30:30;;;;;;;4.05;1.10;;;13.00;99.90;;;;;;5043077;28;20405;-73
2023/10/29 06:33:00;;;;;;;4.57;1.00;;;12.90;99.90;;;;;;5040052;28;20079;-73
2023/10/29 06:35:26;;;;;;;2.90;1.13;;;12.90;99.90;;;;;;5050079;28;20238;-73
2023/10/29 06:37:52;;;;;;;6.22;0.98;;;12.90;99.90;;;;;;5023054;28;20029;-73
2023/10/29 06:40:18;;;;;;;3.58;1.02;;;12.90;99.90;;;;;;5040064;28;20067;-73
2023/10/29 06:42:44;;;;;;;3.53;1.00;;;12.90;99.90;;;;;;5017356;28;20405;-73
2023/10/29 06:45:09;;;;;;;3.95;1.02;;;12.90;99.90;;;;;;5041664;28;20037;-73
2023/10/29 06:47:36;;;;;;;12.68;1.48;;;12.80;99.90;;;;;;5044984;28;20052;-73
2023/10/29 06:50:02;;;;;;;4.70;1.15;;;12.80;99.90;;;;;;5020969;28;20049;-73
2023/10/29 06:52:30;;;;;;;2.25;0.90;;;12.80;99.90;;;;;;5049858;28;20036;-73
2023/10/29 06:54:56;;;;;;;6.80;1.30;;;12.90;99.90;;;;;;5044612;28;20447;-73
2023/10/29 06:57:21;;;;;;;3.17;1.15;;;12.90;99.90;;;;;;5046860;28;20029;-73
2023/10/29 06:59:47;;;;;;;4.35;1.20;;;12.90;99.90;;;;;;5046578;28;20041;-73
2023/10/29 07:02:12;;;;;;;2.85;1.00;;;12.90;99.90;;;;;;5044753;28;20486;-72
2023/10/29 07:04:38;;;;;;;6.07;1.27;;;12.80;99.90;;;;;;5042908;28;20421;-73
2023/10/29 07:07:05;;;;;;;3.30;1.10;;;12.90;99.90;;;;;;5029014;28;20046;-72
2023/10/29 07:09:31;;;;;;;2.78;1.00;;;12.80;99.90;;;;;;5045447;28;20092;-72
2023/10/29 07:11:57;;;;;;;3.40;1.00;;;12.80;99.90;;;;;;5034596;28;20041;-72
2023/10/29 07:14:22;;;;;;;4.45;0.90;;;12.80;99.90;;;;;;5044778;28;20041;-73
2023/10/29 07:16:48;;;;;;;3.85;0.90;;;12.80;99.90;;;;;;5043452;28;20128;-73
2023/10/29 07:19:14;;;;;;;4.47;1.00;;;12.70;99.90;;;;;;5035493;28;20037;-73
2023/10/29 07:21:40;;;;;;;4.65;0.90;;;12.80;99.90;;;;;;5040321;28;20033;-73
2023/10/29 07:24:08;;;;;;;4.43;0.80;;;12.70;99.90;;;;;;5033031;28;20045;-73
2023/10/29 07:26:34;;;;;;;3.90;1.35;;;12.80;99.90;;;;;;5037399;28;20048;-73
2023/10/29 07:29:01;;;;;;;5.30;1.20;;;12.70;99.90;;;;;;5034267;28;20045;-72
2023/10/29 07:31:26;;;;;;;5.75;1.10;;;12.80;99.90;;;;;;5038322;28;20034;-72
2023/10/29 07:33:52;;;;;;;6.45;1.35;;;12.80;99.90;;;;;;5041320;28;20545;-73
2023/10/29 07:36:23;;;;;;;5.93;1.00;;;12.80;99.90;;;;;;5028497;28;20041;-73
2023/10/29 07:38:49;;;;;;;3.10;0.80;;;12.80;99.90;;;;;;5029092;28;20379;-72
2023/10/29 07:41:33;;;;;;;5.95;1.20;;;12.80;99.90;;;;;;5042311;28;20033;-73
2023/10/29 07:44:02;;;;;;;6.35;1.40;;;12.80;99.90;;;;;;5029996;28;20493;-74
2023/10/29 07:46:28;;;;;;;4.85;0.80;;;12.70;99.90;;;;;;5033584;28;20041;-74
2023/10/29 07:48:54;;;;;;;7.18;1.20;;;12.70;99.90;;;;;;5030237;28;20087;-74
2023/10/29 07:51:20;;;;;;;6.22;1.48;;;12.80;99.90;;;;;;5018111;28;20052;-73
2023/10/29 07:53:46;;;;;;;4.13;1.13;;;12.70;99.90;;;;;;5041161;28;20442;-73
2023/10/29 07:56:13;;;;;;;4.38;1.30;;;12.80;99.90;;;;;;5035482;28;20041;-73
2023/10/29 07:58:39;;;;;;;6.10;1.48;;;12.70;99.90;;;;;;5049560;28;20452;-74
2023/10/29 08:01:16;;;;;;;5.88;1.17;;;12.70;99.90;;;;;;5034828;28;20029;-74
2023/10/29 08:03:43;;;;;;;2.65;0.90;;;12.80;99.90;;;;;;5045619;28;20456;-74
2023/10/29 08:06:09;;;;;;;4.80;1.40;;;12.80;99.90;;;;;;5028650;28;20116;-73
2023/10/29 08:08:35;;;;;;;6.50;1.30;;;12.80;99.90;;;;;;5045507;28;20041;-73
2023/10/29 08:11:01;;;;;;;5.82;0.95;;;12.80;99.90;;;;;;5032882;28;20045;-73
2023/10/29 08:13:27;;;;;;;3.13;0.80;;;12.80;99.90;;;;;;5041493;28;20040;-73
2023/10/29 08:15:52;;;;;;;2.78;1.05;;;12.80;99.90;;;;;;5041546;28;20069;-73
2023/10/29 08:18:18;;;;;;;4.15;0.90;;;12.80;99.90;;;;;;5032013;28;20752;-73
2023/10/29 08:20:44;;;;;;;5.00;1.17;;;12.80;99.90;;;;;;5025933;28;20046;-73
2023/10/29 08:23:10;;;;;;;5.90;1.23;;;12.80;99.90;;;;;;5035787;28;20060;-73
2023/10/29 08:25:36;;;;;;;4.75;1.25;;;12.80;99.90;;;;;;5051067;22;20111;-77
2023/10/29 08:28:02;;;;;;;5.50;0.98;;;12.80;99.90;;;;;;5017128;28;20034;-75
2023/10/29 08:30:28;;;;;;;4.78;1.20;;;12.90;99.90;;;;;;5027043;28;20124;-75
2023/10/29 08:32:54;;;;;;;4.07;0.90;;;12.90;99.90;;;;;;5020646;28;20315;-76
2023/10/29 08:35:20;;;;;;;4.93;1.08;;;12.90;99.90;;;;;;5020172;28;20498;-76
2023/10/29 08:37:46;;;;;;;5.90;1.08;;;12.90;99.90;;;;;;5022953;28;20977;-76
2023/10/29 08:40:12;;;;;;;4.15;1.00;;;13.00;99.90;;;;;;5003594;28;20045;-76
2023/10/29 08:42:38;;;;;;;5.38;1.63;;;13.00;99.90;;;;;;5026672;28;20110;-76
2023/10/29 08:45:04;;;;;;;6.32;1.15;;;12.90;99.90;;;;;;5027057;28;20541;-77
2023/10/29 08:47:31;;;;;;;5.82;1.23;;;13.00;99.90;;;;;;5018600;28;20045;-76
2023/10/29 08:49:57;;;;;;;6.78;1.10;;;13.10;99.90;;;;;;5021532;28;20078;-78
2023/10/29 08:52:23;;;;;;;4.50;1.13;;;13.10;99.90;;;;;;5024154;28;20516;-76
2023/10/29 08:54:49;;;;;;;7.40;1.60;;;13.20;99.90;;;;;;5024908;28;20097;-76
2023/10/29 08:57:15;;;;;;;8.40;1.42;;;13.20;99.90;;;;;;5021683;28;20045;-73
2023/10/29 08:59:41;;;;;;;5.85;1.40;;;13.20;99.90;;;;;;4997180;28;20045;-77
2023/10/29 09:02:09;;;;;;;4.82;1.33;;;13.30;99.90;;;;;;5008534;28;20120;-76
2023/10/29 09:04:39;;;;;;;5.20;1.58;;;13.30;99.90;;;;;;5008174;28;20053;-77
2023/10/29 09:07:05;;;;;;;3.17;0.95;;;13.40;99.90;;;;;;5018126;28;20049;-77
2023/10/29 09:09:31;;;;;;;5.55;1.13;;;13.40;99.90;;;;;;5027656;28;20048;-76
2023/10/29 09:11:57;;;;;;;10.52;1.17;;;13.40;99.90;;;;;;5010944;28;20089;-76
2023/10/29 09:14:23;;;;;;;7.35;1.70;;;13.50;99.90;;;;;;5005476;28;20093;-77
2023/10/29 09:16:48;;;;;;;6.93;1.30;;;13.50;99.90;;;;;;5014029;28;20041;-75
2023/10/29 09:19:17;;;;;;;4.80;1.83;;;13.50;99.90;;;;;;5008289;28;20451;-77
2023/10/29 09:21:44;;;;;;;6.30;1.35;;;13.50;99.90;;;;;;5005162;28;20029;-76
2023/10/29 09:24:09;;;;;;;11.20;1.83;;;13.50;99.90;;;;;;5016853;28;20048;-76
2023/10/29 09:26:36;;;;;;;6.03;1.60;;;13.50;99.90;;;;;;5013320;28;20414;-76
2023/10/29 09:29:02;;;;;;;8.57;1.75;;;13.50;99.90;;;;;;5012604;28;20039;-76
2023/10/29 09:31:28;;;;;;;5.90;1.67;;;13.50;99.90;;;;;;5007888;28;20046;-76
2023/10/29 09:33:54;;;;;;;7.55;1.85;;;13.50;99.90;;;;;;5005501;28;20041;-76
2023/10/29 09:36:20;;;;;;;5.82;1.77;;;13.50;99.90;;;;;;5011666;28;20092;-75
2023/10/29 09:38:46;;;;;;;8.95;1.60;;;13.60;99.90;;;;;;5020443;28;20478;-76
2023/10/29 09:41:18;;;;;;;6.78;1.60;;;13.80;99.90;;;;;;4998009;28;20434;-77
2023/10/29 09:43:44;;;;;;;5.70;1.80;;;13.80;99.90;;;;;;5004057;28;20046;-77
2023/10/29 09:46:11;;;;;;;5.85;1.92;;;13.80;99.90;;;;;;5002668;28;20045;-77
2023/10/29 09:48:37;;;;;;;5.50;1.27;;;13.90;99.90;;;;;;5023598;28;20513;-76
2023/10/29 09:51:06;;;;;;;5.03;1.80;;;14.00;99.90;;;;;;5022169;28;20116;-76
2023/10/29 09:53:37;;;;;;;9.77;1.80;;;14.00;99.90;;;;;;5015155;28;20046;-77
2023/10/29 09:56:08;;;;;;;8.38;2.28;;;14.00;99.90;;;;;;5013875;28;20046;-76
2023/10/29 09:58:35;;;;;;;6.88;1.60;;;14.00;99.90;;;;;;5007722;28;20033;-76
2023/10/29 10:01:03;;;;;;;8.70;2.13;;;14.00;99.90;;;;;;5004670;28;20078;-76
2023/10/29 10:03:29;;;;;;;7.53;2.00;;;13.90;99.90;;;;;;5021089;28;20490;-75
2023/10/29 10:05:56;;;;;;;5.10;1.50;;;13.90;99.90;;;;;;5017584;28;20041;-83
2023/10/29 10:08:26;;;;;;;7.32;1.83;;;13.80;99.90;;;;;;5025293;28;20040;-75
2023/10/29 10:10:53;;;;;;;8.82;1.90;;;13.80;99.90;;;;;;5006383;28;20049;-76
2023/10/29 10:13:34;;;;;;;7.13;1.80;;;13.70;99.90;;;;;;4990878;28;20045;-78
2023/10/29 10:16:07;;;;;;;10.10;1.90;;;13.80;99.90;;;;;;5002866;28;20120;-76
2023/10/29 10:18:53;;;;;;;6.18;1.40;;;13.80;99.90;;;;;;5010730;28;20498;-76
2023/10/29 10:21:20;;;;;;;6.53;1.52;;;13.80;99.90;;;;;;5008599;28;20038;-76
2023/10/29 10:23:51;;;;;;;8.52;2.00;;;13.80;99.90;;;;;;5010662;28;20410;-75
2023/10/29 10:26:28;;;;;;;8.25;2.28;;;13.80;99.90;;;;;;5021444;28;20405;-79
2023/10/29 10:28:56;;;;;;;10.18;2.03;;;13.90;99.90;;;;;;5010800;28;20399;-75
2023/10/29 10:31:22;;;;;;;7.75;1.80;;;13.90;99.90;;;;;;5014693;28;20091;-75
2023/10/29 10:33:49;;;;;;;9.63;2.10;;;14.00;99.90;;;;;;5010294;28;20042;-76
2023/10/29 10:36:29;;;;;;;8.77;1.70;;;14.00;99.90;;;;;;5011644;28;20188;-76
2023/10/29 10:38:54;;;;;;;13.07;2.33;;;14.00;99.90;;;;;;5008766;28;20046;-76
2023/10/29 10:41:20;;;;;;;8.32;1.55;;;14.00;99.90;;;;;;5005768;28;20042;-76
2023/10/29 10:44:06;;;;;;;7.93;1.60;;;14.10;99.90;;;;;;5012968;28;20042;-77
2023/10/29 10:46:34;;;;;;;7.68;2.03;;;14.10;99.90;;;;;;5014271;28;20064;-76
2023/10/29 10:49:01;;;;;;;7.78;1.88;;;14.10;99.90;;;;;;5014482;28;20041;-77
2023/10/29 10:51:30;;;;;;;8.10;2.28;;;14.10;99.90;;;;;;5017498;28;20528;-77
2023/10/29 10:53:57;;;;;;;6.85;1.67;;;14.10;99.90;;;;;;5012920;28;20049;-78
2023/10/29 10:56:23;;;;;;;11.43;2.10;;;14.10;99.90;;;;;;5022361;28;20522;-76
2023/10/29 10:58:49;;;;;;;10.95;1.85;;;14.10;99.90;;;;;;5019388;28;20034;-77
2023/10/29 11:01:16;;;;;;;7.15;1.45;;;14.10;99.90;;;;;;5016550;28;20046;-76
2023/10/29 11:03:45;;;;;;;8.15;1.95;;;14.10;99.90;;;;;;5019029;28;20076;-76
2023/10/29 11:06:11;;;;;;;8.20;1.60;;;14.10;99.90;;;;;;5020489;28;20109;-76
2023/10/29 11:08:39;;;;;;;13.32;2.70;;;14.10;99.90;;;;;;5007211;28;20216;-76
2023/10/29 11:11:06;;;;;;;9.95;2.05;;;14.20;99.90;;;;;;5013041;28;20034;-76
2023/10/29 11:13:32;;;;;;;6.22;1.30;;;14.30;99.90;;;;;;5022592;28;20046;-76
2023/10/29 11:16:01;;;;;;;9.30;1.52;;;14.40;99.90;;;;;;5018634;28;20115;-76
2023/10/29 11:18:33;;;;;;;9.05;2.38;;;14.40;99.90;;;;;;5028697;28;20041;-76
2023/10/29 11:21:00;;;;;;;6.72;1.52;;;14.50;99.90;;;;;;5014568;28;20041;-76
2023/10/29 11:23:29;;;;;;;8.27;1.58;;;14.70;99.90;;;;;;5005566;28;20076;-76
2023/10/29 11:26:21;;;;;;;7.82;1.60;;;14.80;99.90;;;;;;5020247;28;20446;-76
2023/10/29 11:28:48;;;;;;;15.43;1.70;;;14.90;99.90;;;;;;5002872;28;20056;-82
2023/10/29 11:31:15;;;;;;;7.72;1.55;;;15.00;99.90;;;;;;5013458;28;20041;-76
2023/10/29 11:34:01;;;;;;;6.57;1.40;;;15.00;99.90;;;;;;5002170;28;20517;-76
2023/10/29 11:36:42;;;;;;;7.60;1.73;;;15.00;99.90;;;;;;4972025;28;20061;-77
2023/10/29 11:39:18;;;;;;;4.05;1.15;;;15.00;99.90;;;;;;5014996;28;20560;-75
2023/10/29 11:41:44;;;;;;;11.35;2.05;;;14.90;99.90;;;;;;5018606;28;20056;-77
2023/10/29 11:44:19;;;;;;;9.02;1.67;;;14.80;99.90;;;;;;5017625;28;20049;-76
2023/10/29 11:47:03;;;;;;;5.70;1.55;;;14.70;99.90;;;;;;5022263;28;20494;-75
2023/10/29 11:49:54;;;;;;;9.02;1.80;;;14.60;99.90;;;;;;4999557;28;20041;-77
2023/10/29 11:52:20;;;;;;;8.15;1.42;;;14.60;99.90;;;;;;5012529;28;20046;-75
2023/10/29 11:54:45;;;;;;;4.57;1.40;;;14.60;99.90;;;;;;5010099;28;20064;-78
2023/10/29 11:57:13;;;;;;;7.55;1.50;;;14.50;99.90;;;;;;5007821;28;20079;-76
2023/10/29 11:59:55;;;;;;;9.52;1.80;;;14.50;99.90;;;;;;5010838;28;20089;-75
2023/10/29 12:02:21;;;;;;;8.13;1.50;;;14.50;99.90;;;;;;5015940;28;20109;-76
2023/10/29 12:04:47;;;;;;;7.07;1.88;;;14.40;99.90;;;;;;5007171;28;20048;-77
2023/10/29 12:07:26;;;;;;;7.78;1.48;;;14.40;99.90;;;;;;5014146;28;20144;-77
2023/10/29 12:10:07;;;;;;;8.50;1.48;;;14.40;99.90;;;;;;5008567;28;20054;-75
2023/10/29 12:12:34;;;;;;;8.20;1.50;;;14.30;99.90;;;;;;5016290;28;20042;-77
2023/10/29 12:15:00;;;;;;;6.75;1.70;;;14.40;99.90;;;;;;5013474;28;20646;-75
2023/10/29 12:17:27;;;;;;;9.95;2.10;;;14.30;99.90;;;;;;5002421;28;20364;-76
2023/10/29 12:19:52;;;;;;;9.00;1.50;;;14.30;99.90;;;;;;5003911;28;20044;-77
2023/10/29 12:22:31;;;;;;;8.35;1.27;;;14.30;99.90;;;;;;5008620;28;20120;-76
2023/10/29 12:25:00;;;;;;;9.77;1.85;;;14.20;99.90;;;;;;5018920;28;20045;-78
2023/10/29 12:27:29;;;;;;;7.20;1.52;;;14.20;99.90;;;;;;5015487;28;20076;-76
2023/10/29 12:29:54;;;;;;;11.98;1.90;;;14.20;99.90;;;;;;5013171;28;20199;-77
2023/10/29 12:32:25;;;;;;;11.65;1.92;;;14.10;99.90;;;;;;5007763;28;20590;-76
2023/10/29 12:34:58;;;;;;;9.75;1.67;;;14.10;99.90;;;;;;5002271;28;20054;-77
2023/10/29 12:37:28;;;;;;;9.13;1.67;;;14.10;99.90;;;;;;5002596;28;20038;-76
2023/10/29 12:39:56;;;;;;;6.53;1.63;;;14.10;99.90;;;;;;5003486;28;20057;-78
2023/10/29 12:42:47;;;;;;;10.80;2.03;;;14.10;99.90;;;;;;5010776;28;20065;-74
2023/10/29 12:45:31;;;;;;;11.93;1.70;;;14.00;99.90;;;;;;5006271;28;20056;-75
2023/10/29 12:48:14;;;;;;;10.90;2.35;;;14.10;99.90;;;;;;5004402;28;20046;-75